createdAt,value
2023-02-27T00:00:59.994Z,99407.97
2023-02-27T00:03:30.051Z,99421.13
2023-02-27T00:05:57.579Z,99432.53
2023-02-27T00:08:26.974Z,99435.66
2023-02-27T00:10:54.367Z,99447.69
2023-02-27T00:13:21.963Z,99443.97
2023-02-27T00:15:52.582Z,99436.88
2023-02-27T00:18:20.352Z,99433.56
2023-02-27T00:20:48.693Z,99439.78
2023-02-27T00:23:21.091Z,99449.72
2023-02-27T00:25:49.967Z,99431.09
2023-02-27T00:28:18.961Z,99451.53
2023-02-27T00:30:46.409Z,99455.72
2023-02-27T00:33:14.271Z,99452.13
2023-02-27T00:35:42.043Z,99451.72
2023-02-27T00:38:10.193Z,99466.88
2023-02-27T00:40:37.773Z,99466.31
2023-02-27T00:43:05.636Z,99463.69
2023-02-27T00:45:33.013Z,99462.38
2023-02-27T00:48:01.610Z,99466.19
2023-02-27T00:50:30.126Z,99460.56
2023-02-27T00:52:58.025Z,99467.78
2023-02-27T00:55:27.239Z,99463.47
2023-02-27T00:57:55.208Z,99462.94
2023-02-27T01:00:23.616Z,99473.78
2023-02-27T01:02:51.541Z,99477.94
2023-02-27T01:05:19.117Z,99474.06
2023-02-27T01:07:46.703Z,99490.03
2023-02-27T01:10:14.781Z,99498.56
2023-02-27T01:12:42.553Z,99498.84
2023-02-27T01:15:11.735Z,99505.31
2023-02-27T01:17:39.738Z,99507.41
2023-02-27T01:20:12.779Z,99511.13
2023-02-27T01:22:41.069Z,99497.91
2023-02-27T01:25:08.988Z,99505.63
2023-02-27T01:27:39.954Z,99507.31
2023-02-27T01:30:10.869Z,99506.59
2023-02-27T01:32:38.808Z,99504.94
2023-02-27T01:35:07.054Z,99526.97
2023-02-27T01:37:34.660Z,99535.06
2023-02-27T01:40:02.835Z,99543.47
2023-02-27T01:42:36.460Z,99525.19
2023-02-27T01:45:31.323Z,99554.25
2023-02-27T01:48:36.148Z,99540.72
2023-02-27T01:51:20.539Z,99560.53
2023-02-27T01:53:51.380Z,99574.69
2023-02-27T01:56:23.101Z,99576.66
2023-02-27T01:58:56.909Z,99581.00
2023-02-27T02:01:26.361Z,99591.91
2023-02-27T02:04:15.399Z,99584.50
2023-02-27T02:06:54.231Z,99574.28
2023-02-27T02:09:22.615Z,99581.00
2023-02-27T02:11:50.048Z,99596.53
2023-02-27T02:14:18.840Z,99596.66
2023-02-27T02:16:54.963Z,99581.16
2023-02-27T02:19:41.085Z,99596.38
2023-02-27T02:22:41.574Z,99600.03
2023-02-27T02:25:28.660Z,99605.34
2023-02-27T02:28:36.934Z,99610.13
2023-02-27T02:31:40.493Z,99604.81
2023-02-27T02:34:29.499Z,99625.06
2023-02-27T02:37:31.087Z,99634.19
2023-02-27T02:40:26.520Z,99640.03
2023-02-27T02:43:09.030Z,99645.78
2023-02-27T02:46:08.460Z,99655.16
2023-02-27T02:48:49.362Z,99653.47
2023-02-27T02:51:23.965Z,99664.81
2023-02-27T02:54:12.949Z,99676.84
2023-02-27T02:57:05.410Z,99675.03
2023-02-27T02:59:43.037Z,99678.53
2023-02-27T03:02:15.783Z,99688.91
2023-02-27T03:05:06.284Z,99678.66
2023-02-27T03:07:43.437Z,99697.72
2023-02-27T03:10:17.255Z,99702.19
2023-02-27T03:12:59.721Z,99715.34
2023-02-27T03:15:41.289Z,99718.84
2023-02-27T03:18:18.745Z,99710.59
2023-02-27T03:20:54.933Z,99719.69
2023-02-27T03:23:38.572Z,99712.00
2023-02-27T03:26:08.468Z,99713.09
2023-02-27T03:28:41.705Z,99737.06
2023-02-27T03:31:19.495Z,99734.25
2023-02-27T03:34:01.494Z,99741.09
2023-02-27T03:36:54.909Z,99740.81
2023-02-27T03:39:32.341Z,99748.97
2023-02-27T03:42:14.856Z,99759.03
2023-02-27T03:45:16.846Z,99775.00
2023-02-27T03:47:45.238Z,99785.06
2023-02-27T03:50:13.927Z,99794.75
2023-02-27T03:52:43.488Z,99794.47
2023-02-27T03:55:15.609Z,99798.66
2023-02-27T03:57:45.241Z,99804.41
2023-02-27T04:00:17.110Z,99807.94
2023-02-27T04:02:47.637Z,99809.47
2023-02-27T04:05:19.461Z,99808.91
2023-02-27T04:08:19.991Z,99807.03
2023-02-27T04:11:06.125Z,99818.41
2023-02-27T04:13:45.509Z,99803.56
2023-02-27T04:16:32.952Z,99811.81
2023-02-27T04:19:34.518Z,99818.97
2023-02-27T04:22:16.932Z,99813.09
2023-02-27T04:25:01.999Z,99797.69
2023-02-27T04:27:48.918Z,99824.88
2023-02-27T04:30:30.104Z,99811.56
2023-02-27T04:33:10.082Z,99816.75
2023-02-27T04:35:51.475Z,99820.97
2023-02-27T04:38:41.868Z,99833.66
2023-02-27T04:41:17.111Z,99844.44
2023-02-27T04:43:46.655Z,99855.28
2023-02-27T04:46:19.482Z,99854.44
2023-02-27T04:49:13.523Z,99853.56
2023-02-27T04:52:05.128Z,99853.06
2023-02-27T04:54:38.472Z,99859.47
2023-02-27T04:57:11.053Z,99864.94
2023-02-27T04:59:47.016Z,99862.06
2023-02-27T05:02:17.898Z,99878.84
2023-02-27T05:04:48.749Z,99886.63
2023-02-27T05:07:22.303Z,99893.34
2023-02-27T05:10:02.667Z,99908.06
2023-02-27T05:12:39.371Z,99920.09
2023-02-27T05:15:14.239Z,99913.25
2023-02-27T05:18:05.862Z,99933.72
2023-02-27T05:20:49.469Z,99924.03
2023-02-27T05:23:41.635Z,99934.06
2023-02-27T05:26:41.425Z,99949.22
2023-02-27T05:29:37.049Z,99956.94
2023-02-27T05:32:21.178Z,99967.78
2023-02-27T05:35:33.076Z,99969.06
2023-02-27T05:38:03.047Z,99973.97
2023-02-27T05:40:39.909Z,99966.78
2023-02-27T05:43:16.362Z,99971.94
2023-02-27T05:45:47.376Z,99975.31
2023-02-27T05:48:25.948Z,99991.22
2023-02-27T05:50:55.355Z,99996.59
2023-02-27T05:53:27.850Z,100003.19
2023-02-27T05:55:58.910Z,99988.47
2023-02-27T05:58:49.647Z,99988.63
2023-02-27T06:01:18.770Z,99990.31
2023-02-27T06:03:46.419Z,100015.06
2023-02-27T06:06:17.700Z,100019.84
2023-02-27T06:08:45.978Z,100013.19
2023-02-27T06:11:13.741Z,100005.06
2023-02-27T06:13:42.200Z,100007.19
2023-02-27T06:16:12.854Z,100009.00
2023-02-27T06:18:40.192Z,100019.72
2023-02-27T06:21:08.024Z,100004.78
2023-02-27T06:23:35.495Z,100017.41
2023-02-27T06:26:03.105Z,100027.38
2023-02-27T06:28:30.436Z,100034.53
2023-02-27T06:30:58.128Z,100041.84
2023-02-27T06:33:28.672Z,100036.53
2023-02-27T06:35:56.454Z,100035.81
2023-02-27T06:38:23.826Z,100064.03
2023-02-27T06:40:52.514Z,100059.16
2023-02-27T06:43:23.031Z,100057.31
2023-02-27T06:45:54.404Z,100060.81
2023-02-27T06:48:22.429Z,100074.88
2023-02-27T06:50:54.455Z,100085.09
2023-02-27T06:53:23.118Z,100083.59
2023-02-27T06:55:51.316Z,100084.47
2023-02-27T06:58:21.232Z,100077.03
2023-02-27T07:00:52.200Z,100072.59
2023-02-27T07:03:23.687Z,100073.56
2023-02-27T07:05:54.038Z,100083.69
2023-02-27T07:08:23.951Z,100081.47
2023-02-27T07:10:54.614Z,100083.44
2023-02-27T07:13:28.921Z,100086.56
2023-02-27T07:15:56.893Z,100087.25
2023-02-27T07:18:26.107Z,100077.94
2023-02-27T07:20:55.553Z,100085.09
2023-02-27T07:23:24.851Z,100089.31
2023-02-27T07:25:55.892Z,100080.09
2023-02-27T07:28:23.976Z,100091.75
2023-02-27T07:30:56.416Z,100101.13
2023-02-27T07:33:25.910Z,100107.19
2023-02-27T07:35:55.007Z,100109.03
2023-02-27T07:38:25.020Z,100118.69
2023-02-27T07:40:56.085Z,100115.00
2023-02-27T07:43:26.643Z,100119.91
2023-02-27T07:45:54.449Z,100131.59
2023-02-27T07:48:24.215Z,100140.84
2023-02-27T07:50:53.064Z,100145.94
2023-02-27T07:53:20.558Z,100150.53
2023-02-27T07:55:49.442Z,100155.00
2023-02-27T07:58:17.579Z,100138.09
2023-02-27T08:00:49.541Z,100133.97
2023-02-27T08:03:18.981Z,100140.88
2023-02-27T08:05:50.470Z,100144.38
2023-02-27T08:08:37.418Z,100137.22
2023-02-27T08:11:06.381Z,100136.53
2023-02-27T08:13:59.998Z,100146.19
2023-02-27T08:16:23.942Z,100149.09
2023-02-27T08:18:56.177Z,100145.75
2023-02-27T08:21:24.045Z,100153.41
2023-02-27T08:23:51.742Z,100165.22
2023-02-27T08:26:21.555Z,100156.91
2023-02-27T08:28:51.351Z,100158.13
2023-02-27T08:31:23.687Z,100161.56
2023-02-27T08:34:04.570Z,100163.94
2023-02-27T08:36:49.979Z,100173.34
2023-02-27T08:39:18.873Z,100167.44
2023-02-27T08:41:46.490Z,100171.50
2023-02-27T08:44:14.041Z,100167.50
2023-02-27T08:46:42.085Z,100181.22
2023-02-27T08:49:09.383Z,100186.97
2023-02-27T08:51:39.666Z,100195.50
2023-02-27T08:54:09.061Z,100198.53
2023-02-27T08:56:36.711Z,100196.41
2023-02-27T08:59:04.049Z,100207.06
2023-02-27T09:01:37.399Z,100206.44
2023-02-27T09:04:08.943Z,100209.13
2023-02-27T09:06:37.078Z,100210.25
2023-02-27T09:09:08.309Z,100210.03
2023-02-27T09:11:38.520Z,100210.22
2023-02-27T09:14:06.704Z,100207.44
2023-02-27T09:16:34.369Z,100208.81
2023-02-27T09:19:01.714Z,100217.59
2023-02-27T09:21:30.412Z,100233.09
2023-02-27T09:24:13.708Z,100232.78
2023-02-27T09:26:47.860Z,100235.19
2023-02-27T09:29:15.907Z,100224.53
2023-02-27T09:31:44.175Z,100217.78
2023-02-27T09:34:12.324Z,100227.72
2023-02-27T09:36:40.853Z,100235.59
2023-02-27T09:39:10.329Z,100246.44
2023-02-27T09:42:02.399Z,100236.69
2023-02-27T09:44:45.684Z,100243.69
2023-02-27T09:47:34.731Z,100243.59
2023-02-27T09:50:08.046Z,100228.88
2023-02-27T09:52:37.784Z,100249.97
2023-02-27T09:55:12.212Z,100244.50
2023-02-27T09:57:44.033Z,100252.13
2023-02-27T10:00:18.321Z,100263.19
2023-02-27T10:03:24.868Z,100255.03
2023-02-27T10:06:11.077Z,100261.63
2023-02-27T10:08:55.570Z,100254.91
2023-02-27T10:11:44.144Z,100263.78
2023-02-27T10:14:43.823Z,100260.84
2023-02-27T10:17:19.704Z,100254.06
2023-02-27T10:19:49.648Z,100258.94
2023-02-27T10:22:26.873Z,100255.44
2023-02-27T10:25:01.430Z,100266.09
2023-02-27T10:27:31.218Z,100274.22
2023-02-27T10:30:28.302Z,100282.84
2023-02-27T10:33:16.125Z,100274.91
2023-02-27T10:35:45.677Z,100261.16
2023-02-27T10:38:17.876Z,100274.53
2023-02-27T10:40:50.033Z,100263.94
2023-02-27T10:43:19.467Z,100265.09
2023-02-27T10:45:49.097Z,100266.94
2023-02-27T10:48:22.435Z,100270.78
2023-02-27T10:50:52.421Z,100277.88
2023-02-27T10:53:31.635Z,100285.22
2023-02-27T10:56:08.926Z,100278.97
2023-02-27T10:58:38.170Z,100283.28
2023-02-27T11:01:13.429Z,100276.06
2023-02-27T11:03:45.240Z,100270.50
2023-02-27T11:06:26.182Z,100269.59
2023-02-27T11:09:25.102Z,100265.94
2023-02-27T11:11:55.113Z,100261.97
2023-02-27T11:14:25.677Z,100262.75
2023-02-27T11:17:01.980Z,100254.66
2023-02-27T11:19:41.351Z,100265.78
2023-02-27T11:22:21.312Z,100263.91
2023-02-27T11:24:51.732Z,100262.91
2023-02-27T11:27:32.481Z,100272.34
2023-02-27T11:30:32.191Z,100278.06
2023-02-27T11:33:07.561Z,100280.41
2023-02-27T11:35:38.905Z,100284.16
2023-02-27T11:38:30.995Z,100285.13
2023-02-27T11:41:06.887Z,100289.66
2023-02-27T11:43:42.939Z,100279.38
2023-02-27T11:46:46.321Z,100294.53
2023-02-27T11:49:17.751Z,100287.75
2023-02-27T11:52:21.207Z,100292.59
2023-02-27T11:54:58.106Z,100302.91
2023-02-27T11:57:31.505Z,100313.06
2023-02-27T12:00:23.967Z,100301.56
2023-02-27T12:03:16.819Z,100305.50
2023-02-27T12:05:50.799Z,100309.47
2023-02-27T12:08:50.832Z,100310.19
2023-02-27T12:11:30.493Z,100299.16
2023-02-27T12:14:23.988Z,100290.13
2023-02-27T12:17:24.880Z,100300.78
2023-02-27T12:20:10.928Z,100296.25
2023-02-27T12:22:46.095Z,100294.38
2023-02-27T12:25:24.630Z,100303.69
2023-02-27T12:28:03.911Z,100307.78
2023-02-27T12:30:40.526Z,100309.41
2023-02-27T12:33:35.881Z,100312.31
2023-02-27T12:36:05.174Z,100314.41
2023-02-27T12:38:37.341Z,100311.50
2023-02-27T12:41:37.338Z,100306.44
2023-02-27T12:44:43.065Z,100322.44
2023-02-27T12:47:43.824Z,100302.34
2023-02-27T12:50:20.239Z,100297.03
2023-02-27T12:53:09.063Z,100298.84
2023-02-27T12:55:49.767Z,100307.44
2023-02-27T12:58:36.002Z,100328.56
2023-02-27T13:01:32.328Z,100325.94
2023-02-27T13:04:18.603Z,100324.38
2023-02-27T13:07:10.609Z,100318.44
2023-02-27T13:10:07.369Z,100321.19
2023-02-27T13:13:22.383Z,100325.50
2023-02-27T13:16:06.377Z,100323.56
2023-02-27T13:18:56.415Z,100328.28
2023-02-27T13:21:51.106Z,100326.84
2023-02-27T13:24:35.124Z,100342.16
2023-02-27T13:27:26.039Z,100337.97
2023-02-27T13:30:08.545Z,100346.13
2023-02-27T13:32:47.583Z,100341.13
2023-02-27T13:35:56.298Z,100338.19
2023-02-27T13:38:52.401Z,100332.28
2023-02-27T13:41:36.295Z,100327.94
2023-02-27T13:44:31.479Z,100330.50
2023-02-27T13:47:18.987Z,100318.56
2023-02-27T13:49:47.410Z,100328.22
2023-02-27T13:52:30.801Z,100327.66
2023-02-27T13:55:11.209Z,100318.13
2023-02-27T13:57:41.242Z,100309.41
2023-02-27T14:00:23.428Z,100309.84
2023-02-27T14:03:00.216Z,100313.47
2023-02-27T14:05:40.524Z,100311.22
2023-02-27T14:08:22.128Z,100314.31
2023-02-27T14:11:26.618Z,100306.56
2023-02-27T14:13:58.128Z,100316.22
2023-02-27T14:16:40.916Z,100332.47
2023-02-27T14:19:27.734Z,100321.56
2023-02-27T14:22:19.929Z,100318.88
2023-02-27T14:25:17.799Z,100322.72
2023-02-27T14:27:45.254Z,100318.53
2023-02-27T14:30:41.134Z,100312.91
2023-02-27T14:33:33.354Z,100308.47
2023-02-27T14:36:08.893Z,100305.94
2023-02-27T14:38:38.826Z,100310.88
2023-02-27T14:41:22.583Z,100309.63
2023-02-27T14:43:57.646Z,100296.94
2023-02-27T14:46:30.075Z,100307.75
2023-02-27T14:49:00.844Z,100304.66
2023-02-27T14:51:31.340Z,100309.47
2023-02-27T14:54:15.960Z,100307.94
2023-02-27T14:57:02.057Z,100331.66
2023-02-27T14:59:30.949Z,100313.81
2023-02-27T15:02:02.198Z,100313.28
2023-02-27T15:04:32.802Z,100314.09
2023-02-27T15:07:01.194Z,100302.00
2023-02-27T15:09:37.508Z,100313.81
2023-02-27T15:12:05.592Z,100323.78
2023-02-27T15:14:39.628Z,100321.09
2023-02-27T15:17:18.664Z,100317.44
2023-02-27T15:20:23.377Z,100328.16
2023-02-27T15:22:51.585Z,100327.59
2023-02-27T15:25:33.128Z,100337.88
2023-02-27T15:28:20.671Z,100345.59
2023-02-27T15:30:49.789Z,100353.75
2023-02-27T15:33:18.525Z,100353.75
2023-02-27T15:35:46.480Z,100351.50
2023-02-27T15:38:29.886Z,100354.59
2023-02-27T15:40:58.913Z,100355.97
2023-02-27T15:43:28.145Z,100352.88
2023-02-27T15:45:56.422Z,100346.13
2023-02-27T15:48:24.883Z,100356.41
2023-02-27T15:51:02.414Z,100346.41
2023-02-27T15:53:34.243Z,100352.84
2023-02-27T15:56:06.333Z,100353.44
2023-02-27T15:58:38.626Z,100352.84
2023-02-27T16:01:17.947Z,100353.56
2023-02-27T16:03:49.091Z,100359.44
2023-02-27T16:06:24.879Z,100356.31
2023-02-27T16:09:06.675Z,100360.53
2023-02-27T16:11:37.417Z,100355.69
2023-02-27T16:14:06.226Z,100359.28
2023-02-27T16:16:36.350Z,100356.66
2023-02-27T16:19:31.162Z,100354.94
2023-02-27T16:22:17.939Z,100374.31
2023-02-27T16:24:46.523Z,100361.97
2023-02-27T16:27:16.888Z,100360.78
2023-02-27T16:29:46.141Z,100376.22
2023-02-27T16:32:42.725Z,100374.75
2023-02-27T16:35:22.760Z,100386.66
2023-02-27T16:37:50.810Z,100389.38
2023-02-27T16:40:24.395Z,100400.38
2023-02-27T16:43:10.774Z,100399.28
2023-02-27T16:45:52.901Z,100412.28
2023-02-27T16:48:20.482Z,100419.47
2023-02-27T16:50:48.162Z,100420.69
2023-02-27T16:53:17.066Z,100427.88
2023-02-27T16:55:44.673Z,100432.75
2023-02-27T16:58:16.091Z,100431.06
2023-02-27T17:00:44.310Z,100428.97
2023-02-27T17:03:11.902Z,100423.44
2023-02-27T17:05:39.634Z,100416.41
2023-02-27T17:08:08.374Z,100415.72
2023-02-27T17:10:38.210Z,100406.78
2023-02-27T17:14:21.740Z,100420.81
2023-02-27T17:16:52.541Z,100417.84
2023-02-27T17:19:46.331Z,100432.97
2023-02-27T17:22:15.386Z,100440.81
2023-02-27T17:24:43.043Z,100430.09
2023-02-27T17:27:14.190Z,100445.94
2023-02-27T17:29:43.902Z,100411.72
2023-02-27T17:32:11.983Z,100430.34
2023-02-27T17:34:39.587Z,100430.34
2023-02-27T17:37:07.337Z,100427.22
2023-02-27T17:39:34.762Z,100432.75
2023-02-27T17:42:04.584Z,100425.09
2023-02-27T17:44:33.006Z,100428.56
2023-02-27T17:47:00.707Z,100450.97
2023-02-27T17:49:29.297Z,100455.97
2023-02-27T17:51:58.718Z,100440.94
2023-02-27T17:54:26.020Z,100437.19
2023-02-27T17:56:53.987Z,100437.31
2023-02-27T17:59:21.678Z,100446.00
2023-02-27T18:01:50.191Z,100438.28
2023-02-27T18:04:20.172Z,100435.50
2023-02-27T18:06:58.190Z,100446.63
2023-02-27T18:09:25.641Z,100450.69
2023-02-27T18:11:53.382Z,100433.13
2023-02-27T18:14:20.737Z,100441.06
2023-02-27T18:16:48.496Z,100446.78
2023-02-27T18:19:21.722Z,100452.72
2023-02-27T18:21:50.510Z,100441.13
2023-02-27T18:24:19.104Z,100434.63
2023-02-27T18:26:46.783Z,100445.91
2023-02-27T18:29:14.650Z,100444.47
2023-02-27T18:31:50.325Z,100456.22
2023-02-27T18:34:17.948Z,100456.41
2023-02-27T18:36:45.683Z,100453.22
2023-02-27T18:39:14.907Z,100457.91
2023-02-27T18:41:42.650Z,100443.44
2023-02-27T18:44:11.714Z,100441.66
2023-02-27T18:46:40.552Z,100442.75
2023-02-27T18:49:08.469Z,100453.09
2023-02-27T18:51:38.302Z,100460.84
2023-02-27T18:54:08.323Z,100457.44
2023-02-27T18:56:37.338Z,100472.16
2023-02-27T18:59:07.004Z,100480.22
2023-02-27T19:01:38.085Z,100483.06
2023-02-27T19:04:07.683Z,100469.81
2023-02-27T19:06:42.304Z,100468.75
2023-02-27T19:09:15.484Z,100473.44
2023-02-27T19:11:45.320Z,100483.06
2023-02-27T19:14:16.256Z,100484.84
2023-02-27T19:16:46.265Z,100476.41
2023-02-27T19:19:13.651Z,100479.97
2023-02-27T19:21:44.133Z,100485.31
2023-02-27T19:24:13.306Z,100486.94
2023-02-27T19:26:41.202Z,100497.59
2023-02-27T19:29:09.625Z,100489.75
2023-02-27T19:31:37.317Z,100494.97
2023-02-27T19:34:05.666Z,100486.41
2023-02-27T19:36:36.062Z,100485.94
2023-02-27T19:39:37.867Z,100479.31
2023-02-27T19:42:44.296Z,100482.94
2023-02-27T19:45:23.694Z,100479.41
2023-02-27T19:47:55.171Z,100477.41
2023-02-27T19:50:22.746Z,100486.97
2023-02-27T19:52:57.717Z,100492.63
2023-02-27T19:55:28.410Z,100494.41
2023-02-27T19:58:04.210Z,100503.13
2023-02-27T20:00:57.993Z,100499.38
2023-02-27T20:03:25.991Z,100508.66
2023-02-27T20:05:53.868Z,100497.25
2023-02-27T20:08:24.427Z,100506.25
2023-02-27T20:11:04.618Z,100510.59
2023-02-27T20:13:32.504Z,100506.78
2023-02-27T20:16:03.722Z,100508.47
2023-02-27T20:18:36.306Z,100509.03
2023-02-27T20:21:10.671Z,100497.34
2023-02-27T20:23:43.825Z,100499.06
2023-02-27T20:26:42.786Z,100504.16
2023-02-27T20:29:14.091Z,100516.00
2023-02-27T20:31:46.337Z,100499.41
2023-02-27T20:34:22.026Z,100502.25
2023-02-27T20:36:53.074Z,100498.31
2023-02-27T20:39:22.385Z,100506.03
2023-02-27T20:41:49.739Z,100511.84
2023-02-27T20:44:17.759Z,100504.59
2023-02-27T20:47:02.388Z,100511.91
2023-02-27T20:49:29.990Z,100524.63
2023-02-27T20:51:58.783Z,100518.94
2023-02-27T20:54:26.683Z,100529.00
2023-02-27T20:56:54.743Z,100540.69
2023-02-27T20:59:38.133Z,100538.84
2023-02-27T21:02:10.125Z,100539.47
2023-02-27T21:04:44.380Z,100542.06
2023-02-27T21:07:49.596Z,100542.97
2023-02-27T21:10:21.221Z,100557.09
2023-02-27T21:13:06.259Z,100548.81
2023-02-27T21:19:04.285Z,100548.63
2023-02-27T21:21:39.545Z,100558.06
2023-02-27T21:24:39.677Z,100558.06
2023-02-27T21:27:21.394Z,100558.53
2023-02-27T21:29:51.002Z,100569.81
2023-02-27T21:33:03.384Z,100567.72
2023-02-27T21:35:51.237Z,100567.22
2023-02-27T21:38:26.521Z,100570.03
2023-02-27T21:41:17.738Z,100560.94
2023-02-27T21:43:50.733Z,100552.59
2023-02-27T21:46:27.782Z,100564.81
2023-02-27T21:49:09.333Z,100562.28
2023-02-27T21:51:41.177Z,100553.94
2023-02-27T21:54:21.398Z,100557.53
2023-02-27T21:57:03.400Z,100559.84
2023-02-27T21:59:43.271Z,100559.47
2023-02-27T22:02:23.262Z,100561.63
2023-02-27T22:05:19.829Z,100555.81
2023-02-27T22:07:52.100Z,100557.53
2023-02-27T22:10:22.956Z,100553.91
2023-02-27T22:15:46.942Z,100538.88
2023-02-27T22:18:20.569Z,100558.28
2023-02-27T22:20:50.779Z,100571.25
2023-02-27T22:23:22.625Z,100580.88
2023-02-27T22:26:10.792Z,100576.00
2023-02-27T22:28:41.661Z,100582.56
2023-02-27T22:31:18.092Z,100581.59
2023-02-27T22:33:47.966Z,100576.66
2023-02-27T22:36:21.550Z,100582.97
2023-02-27T22:38:50.807Z,100583.91
2023-02-27T22:41:24.203Z,100573.63
2023-02-27T22:43:51.757Z,100567.44
2023-02-27T22:46:34.741Z,100571.22
2023-02-27T22:49:12.378Z,100576.06
2023-02-27T22:51:40.083Z,100586.22
2023-02-27T22:54:08.506Z,100583.44
2023-02-27T22:56:37.189Z,100573.88
2023-02-27T22:59:05.447Z,100575.09
2023-02-27T23:01:34.883Z,100548.09
2023-02-27T23:04:05.573Z,100570.03
2023-02-27T23:06:37.513Z,100568.19
2023-02-27T23:09:08.405Z,100575.34
2023-02-27T23:11:36.311Z,100567.59
2023-02-27T23:14:04.874Z,100575.13
2023-02-27T23:16:32.775Z,100579.59
2023-02-27T23:19:01.085Z,100583.22
2023-02-27T23:21:35.028Z,100581.88
2023-02-27T23:24:08.175Z,100583.09
2023-02-27T23:26:40.223Z,100588.53
2023-02-27T23:29:08.969Z,100593.75
2023-02-27T23:31:37.680Z,100596.41
2023-02-27T23:34:06.176Z,100586.75
2023-02-27T23:36:35.204Z,100600.41
2023-02-27T23:39:03.577Z,100601.97
2023-02-27T23:41:35.976Z,100601.25
2023-02-27T23:44:22.080Z,100596.88
2023-02-27T23:46:50.745Z,100590.72
2023-02-27T23:49:19.426Z,100597.38
2023-02-27T23:51:47.143Z,100599.31
2023-02-27T23:54:14.551Z,100591.09
2023-02-27T23:56:46.714Z,100604.66
2023-02-27T23:59:14.603Z,100598.94
